Time;durP1;ratioP1;P1;durP2;ratioP2;P2;SDS_P1;SDS_P2;PMS_P1;PMS_P2;Temp;Humidity;BMP_temperature;BMP_pressure;BME280_temperature;BME280_humidity;BME280_pressure;Samples;Min_cycle;Max_cycle;Signal;HPM_P1;HPM_P2
2023/05/19 00:00:43;;;;;;;4.32;3.65;;;;;;;10.40;78.28;102788.09;4982461;28;20042;-82
2023/05/19 00:03:09;;;;;;;5.70;3.60;;;;;;;10.40;78.41;102788.94;4973385;28;20066;-81
2023/05/19 00:05:39;;;;;;;6.88;4.22;;;;;;;10.38;78.61;102793.34;4998153;28;20241;-82
2023/05/19 00:08:09;;;;;;;5.85;3.60;;;;;;;10.20;79.29;102794.31;4981917;28;20034;-81
2023/05/19 00:10:35;;;;;;;18.08;4.20;;;;;;;10.12;79.55;102790.91;4998493;28;20041;-82
2023/05/19 00:13:00;;;;;;;8.80;3.47;;;;;;;10.07;79.60;102790.06;4985642;28;20034;-82
2023/05/19 00:15:26;;;;;;;5.97;4.07;;;;;;;10.02;80.07;102786.59;4999751;28;20045;-81
2023/05/19 00:17:54;;;;;;;5.80;3.28;;;;;;;9.99;80.49;102782.28;4981744;28;20470;-81
2023/05/19 00:20:20;;;;;;;5.88;3.25;;;;;;;9.95;80.47;102786.66;4973310;28;20046;-82
2023/05/19 00:22:46;;;;;;;7.78;3.97;;;;;;;9.89;81.01;102786.69;4999474;28;20141;-82
2023/05/19 00:25:11;;;;;;;5.90;3.78;;;;;;;9.87;81.28;102785.84;4965949;28;20042;-81
2023/05/19 00:27:37;;;;;;;6.50;3.60;;;;;;;9.85;80.93;102784.13;4999161;28;20408;-81
2023/05/19 00:30:02;;;;;;;7.50;3.50;;;;;;;9.74;81.34;102785.03;4982061;28;20038;-81
2023/05/19 00:32:28;;;;;;;4.60;3.20;;;;;;;9.80;81.87;102791.97;4999740;28;20041;-81
2023/05/19 00:34:53;;;;;;;11.07;3.80;;;;;;;9.76;81.01;102788.50;4981340;28;20057;-82
2023/05/19 00:37:19;;;;;;;5.97;3.17;;;;;;;9.78;81.19;102791.97;4999423;28;20038;-82
2023/05/19 00:39:44;;;;;;;7.18;3.75;;;;;;;9.74;81.71;102787.66;4998717;28;20046;-82
2023/05/19 00:42:10;;;;;;;11.73;3.88;;;;;;;9.69;81.70;102786.81;4997892;28;20046;-81
2023/05/19 00:44:40;;;;;;;8.32;3.25;;;;;;;9.57;82.11;102797.38;4965197;28;20379;-81
2023/05/19 00:47:06;;;;;;;7.45;3.33;;;;;;;9.60;82.06;102793.00;4999641;28;20054;-81
2023/05/19 00:49:31;;;;;;;4.22;3.70;;;;;;;9.54;82.24;102789.53;4998702;28;20031;-81
2023/05/19 00:52:00;;;;;;;6.00;3.53;;;;;;;9.50;82.39;102785.19;4961549;28;20097;-82
2023/05/19 00:54:26;;;;;;;;;;;;;;;9.62;82.10;102785.09;4982066;28;20354;-81
2023/05/19 00:56:53;;;;;;;3.80;3.40;;;;;;;9.60;81.75;102781.63;4989461;28;19933;-81
2023/05/19 00:59:18;;;;;;;6.57;3.45;;;;;;;9.50;82.20;102783.44;4981486;28;20101;-81
2023/05/19 01:01:47;;;;;;;5.05;3.70;;;;;;;9.51;82.24;102776.47;4998185;28;20101;-81
2023/05/19 01:04:20;;;;;;;6.95;3.83;;;;;;;9.46;82.68;102775.59;4981246;28;20058;-81
2023/05/19 01:06:53;;;;;;;4.75;3.83;;;;;;;9.44;82.59;102778.25;4981598;28;20038;-81
2023/05/19 01:09:20;;;;;;;6.57;3.50;;;;;;;9.43;82.89;102773.03;4998926;28;20041;-81
2023/05/19 01:11:45;;;;;;;6.55;3.85;;;;;;;9.35;82.87;102778.28;4993778;28;20039;-81
2023/05/19 01:14:11;;;;;;;7.95;3.70;;;;;;;9.28;83.46;102777.44;4966350;28;20053;-81
2023/05/19 01:16:42;;;;;;;7.57;3.70;;;;;;;9.31;83.12;102780.03;4982743;28;20049;-81
2023/05/19 01:19:49;;;;;;;7.97;4.10;;;;;;;9.27;83.45;102780.94;4975753;28;20033;-81
2023/05/19 01:22:43;;;;;;;6.47;3.63;;;;;;;9.26;83.35;102773.97;4990182;28;20284;-81
2023/05/19 01:25:46;;;;;;;8.13;4.07;;;;;;;9.21;83.75;102771.38;4990255;28;20054;-81
2023/05/19 01:28:14;;;;;;;5.00;3.67;;;;;;;9.28;83.72;102768.72;4980551;28;20045;-81
2023/05/19 01:30:41;;;;;;;5.50;3.28;;;;;;;9.32;83.33;102770.47;4993104;28;20026;-81
2023/05/19 01:33:10;;;;;;;9.18;3.85;;;;;;;9.29;83.37;102768.72;4994159;28;20241;-81
2023/05/19 01:35:36;;;;;;;;;;;;;;;9.31;83.27;102766.94;4994095;28;20030;-81
2023/05/19 01:38:03;;;;;;;7.68;3.63;;;;;;;9.28;83.48;102767.00;4982453;28;19961;-81
2023/05/19 01:40:29;;;;;;;6.75;3.35;;;;;;;9.29;83.17;102767.84;4991853;28;20324;-81
2023/05/19 01:42:58;;;;;;;6.30;3.08;;;;;;;9.29;83.54;102760.88;4996396;28;20345;-81
2023/05/19 01:45:26;;;;;;;9.48;3.22;;;;;;;9.35;83.02;102762.56;4991320;28;20077;-81
2023/05/19 01:47:56;;;;;;;14.30;3.87;;;;;;;9.27;83.48;102767.00;4986992;28;20106;-81
2023/05/19 01:50:22;;;;;;;7.95;3.97;;;;;;;9.20;83.39;102763.53;4980769;28;20034;-81
2023/05/19 01:52:47;;;;;;;7.32;3.80;;;;;;;9.20;83.63;102756.56;4998150;28;20038;-81
2023/05/19 01:55:13;;;;;;;11.38;3.53;;;;;;;9.23;83.35;102763.53;4972123;28;20034;-81
2023/05/19 01:58:11;;;;;;;7.15;3.75;;;;;;;9.21;83.51;102755.69;4996453;28;20126;-81
2023/05/19 02:00:44;;;;;;;4.95;3.58;;;;;;;9.23;83.68;102753.06;4973812;28;20050;-81
2023/05/19 02:03:36;;;;;;;7.88;3.60;;;;;;;9.28;83.62;102747.78;4995695;28;20031;-82
2023/05/19 02:06:19;;;;;;;5.82;3.33;;;;;;;9.22;83.50;102739.13;4961337;28;20338;-81
2023/05/19 02:09:07;;;;;;;8.35;3.53;;;;;;;9.22;83.56;102753.91;4978902;28;20042;-81
2023/05/19 02:11:36;;;;;;;4.82;3.28;;;;;;;9.20;83.80;102745.22;4998278;28;20045;-81
2023/05/19 02:14:28;;;;;;;3.50;3.20;;;;;;;9.16;83.53;102744.38;4997946;28;20097;-81
2023/05/19 02:16:57;;;;;;;7.15;3.35;;;;;;;9.15;84.01;102741.75;4983832;28;20068;-81
2023/05/19 02:19:31;;;;;;;6.18;3.10;;;;;;;9.16;83.80;102744.38;4990104;28;20053;-81
2023/05/19 02:21:57;;;;;;;4.22;3.67;;;;;;;9.09;84.34;102747.03;4979513;28;20101;-81
2023/05/19 02:24:23;;;;;;;7.03;3.50;;;;;;;9.15;84.00;102740.03;4987685;28;20056;-81
2023/05/19 02:26:52;;;;;;;5.68;3.53;;;;;;;9.15;83.99;102739.13;4997870;28;20046;-81
2023/05/19 02:29:19;;;;;;;4.82;3.40;;;;;;;9.16;84.05;102735.66;4997797;28;20037;-81
2023/05/19 02:31:44;;;;;;;7.35;3.88;;;;;;;9.15;83.86;102741.75;4982269;28;20043;-81
2023/05/19 02:34:10;;;;;;;7.63;3.88;;;;;;;9.16;83.79;102740.91;4989472;28;20039;-81
2023/05/19 02:36:37;;;;;;;9.40;3.55;;;;;;;9.17;83.65;102743.50;4980435;28;20045;-81
2023/05/19 02:39:03;;;;;;;7.38;2.83;;;;;;;9.20;83.56;102735.66;4975582;28;20106;-81
2023/05/19 02:41:29;;;;;;;4.10;3.10;;;;;;;9.19;83.38;102733.91;4996638;28;20041;-81
2023/05/19 02:43:55;;;;;;;5.35;3.10;;;;;;;9.21;83.39;102726.91;4986074;28;20348;-81
2023/05/19 02:46:20;;;;;;;4.35;3.15;;;;;;;9.18;83.51;102731.28;4980187;28;20045;-81
2023/05/19 02:48:45;;;;;;;9.00;3.92;;;;;;;9.21;83.14;102731.28;4979827;28;20390;-81
2023/05/19 02:51:11;;;;;;;4.15;2.90;;;;;;;9.23;83.15;102729.53;4948177;28;20065;-81
2023/05/19 02:53:36;;;;;;;3.92;3.42;;;;;;;9.25;82.65;102724.31;4979935;28;20050;-81
2023/05/19 02:56:02;;;;;;;6.20;3.38;;;;;;;9.19;82.46;102727.81;4979801;28;20049;-81
2023/05/19 02:58:27;;;;;;;5.68;3.30;;;;;;;9.21;82.78;102734.75;4964343;28;20477;-81
2023/05/19 03:00:54;;;;;;;4.43;3.30;;;;;;;9.15;82.81;102728.69;4996865;28;20065;-83
2023/05/19 03:03:20;;;;;;;7.05;3.65;;;;;;;9.12;83.22;102729.59;4982380;28;20053;-84
2023/05/19 03:05:46;;;;;;;7.28;3.30;;;;;;;9.12;83.19;102729.59;4973529;28;20106;-83
2023/05/19 03:08:11;;;;;;;6.00;3.67;;;;;;;9.10;83.02;102725.25;4964674;28;20077;-83
2023/05/19 03:10:37;;;;;;;4.82;3.47;;;;;;;9.07;83.14;102720.88;4971423;28;20137;-84
2023/05/19 03:13:02;;;;;;;10.32;4.07;;;;;;;9.06;83.50;102719.16;4962829;28;20031;-83
2023/05/19 03:15:28;;;;;;;4.25;3.42;;;;;;;8.99;83.84;102718.31;4962230;28;20046;-83
2023/05/19 03:17:53;;;;;;;7.00;4.03;;;;;;;8.93;84.20;102723.56;4978569;28;20106;-83
2023/05/19 03:20:19;;;;;;;6.80;3.63;;;;;;;8.94;84.21;102721.81;4976101;28;20377;-84
2023/05/19 03:22:44;;;;;;;7.80;3.70;;;;;;;8.92;83.85;102719.22;4962219;28;20031;-83
2023/05/19 03:25:09;;;;;;;6.68;3.90;;;;;;;8.92;83.89;102724.44;4959341;28;20304;-83
2023/05/19 03:27:35;;;;;;;7.75;3.47;;;;;;;8.88;84.36;102720.09;4978078;28;20062;-83
2023/05/19 03:30:00;;;;;;;9.50;4.05;;;;;;;8.82;84.49;102713.16;4972547;28;20045;-83
2023/05/19 03:32:26;;;;;;;6.45;3.70;;;;;;;8.76;84.59;102710.53;4988987;28;20112;-83
2023/05/19 03:34:51;;;;;;;6.53;4.18;;;;;;;8.77;84.89;102706.22;4976284;28;20054;-83
2023/05/19 03:37:16;;;;;;;4.57;3.50;;;;;;;8.76;85.02;102704.47;4978571;28;20038;-83
2023/05/19 03:39:42;;;;;;;4.20;3.20;;;;;;;8.79;84.97;102718.38;4976380;28;20102;-83
2023/05/19 03:42:07;;;;;;;8.30;4.32;;;;;;;8.74;84.87;102716.66;4965423;28;20463;-84
2023/05/19 03:44:33;;;;;;;8.02;4.22;;;;;;;8.70;85.36;102715.81;4982444;28;20053;-84
2023/05/19 03:46:58;;;;;;;8.48;4.22;;;;;;;8.73;85.52;102714.91;4977589;28;20042;-83
2023/05/19 03:49:24;;;;;;;8.23;3.70;;;;;;;8.74;85.65;102711.44;4983135;28;20043;-83
2023/05/19 03:51:49;;;;;;;5.95;3.80;;;;;;;8.73;85.54;102710.56;4982799;28;20058;-83
2023/05/19 03:54:15;;;;;;;6.65;4.22;;;;;;;8.73;85.60;102720.13;4982391;28;20360;-84
2023/05/19 03:56:41;;;;;;;7.68;4.78;;;;;;;8.75;85.55;102721.00;4981713;28;20249;-83
2023/05/19 03:59:09;;;;;;;12.85;4.00;;;;;;;8.76;85.20;102717.53;4982303;28;20317;-83
2023/05/19 04:01:35;;;;;;;7.85;4.07;;;;;;;8.76;85.36;102722.75;4980469;28;20042;-83
2023/05/19 04:04:01;;;;;;;4.68;4.07;;;;;;;8.76;85.31;102721.00;4984330;28;20062;-83
2023/05/19 04:06:26;;;;;;;7.35;3.78;;;;;;;8.70;85.33;102720.16;4967925;28;20046;-83
2023/05/19 04:08:52;;;;;;;10.50;4.90;;;;;;;8.66;86.13;102716.69;4983807;28;20053;-83
2023/05/19 04:11:18;;;;;;;7.22;3.80;;;;;;;8.70;86.22;102720.16;4979935;28;20080;-83
2023/05/19 04:13:44;;;;;;;7.43;4.43;;;;;;;8.71;86.18;102714.91;4948741;28;20375;-84
2023/05/19 04:16:09;;;;;;;8.32;4.25;;;;;;;8.69;86.30;102721.03;4984656;28;20173;-83
2023/05/19 04:18:35;;;;;;;8.90;4.60;;;;;;;8.65;86.71;102718.41;4981875;28;20102;-83
2023/05/19 04:21:00;;;;;;;9.43;5.07;;;;;;;8.63;86.45;102721.91;4966511;28;20270;-83
2023/05/19 04:23:26;;;;;;;7.22;3.70;;;;;;;8.63;86.67;102728.00;4948768;28;20069;-83
2023/05/19 04:25:53;;;;;;;11.57;4.20;;;;;;;8.63;86.61;102733.22;4983597;28;20870;-83
2023/05/19 04:28:18;;;;;;;12.20;4.53;;;;;;;8.60;86.66;102728.03;4963891;28;20068;-83
2023/05/19 04:30:45;;;;;;;11.52;4.32;;;;;;;8.60;87.28;102729.75;4984855;28;20058;-83
2023/05/19 04:33:11;;;;;;;6.80;4.25;;;;;;;8.59;87.69;102728.03;4975298;28;20030;-83
2023/05/19 04:35:38;;;;;;;8.45;4.80;;;;;;;8.67;87.13;102728.00;4998978;28;20057;-84
2023/05/19 04:38:04;;;;;;;6.03;4.13;;;;;;;8.73;86.78;102725.34;4988560;28;20112;-84
2023/05/19 04:40:29;;;;;;;6.50;4.38;;;;;;;8.63;87.49;102732.34;4984498;28;20329;-84
2023/05/19 04:42:56;;;;;;;10.70;4.88;;;;;;;8.55;88.06;102727.16;5000433;28;20172;-84
2023/05/19 04:45:22;;;;;;;13.90;4.95;;;;;;;8.59;88.26;102728.88;4983065;28;20054;-84
2023/05/19 04:47:47;;;;;;;6.25;4.32;;;;;;;8.60;88.57;102724.53;4999556;28;20050;-84
2023/05/19 04:50:13;;;;;;;7.00;4.43;;;;;;;8.64;88.40;102721.91;4967644;28;20042;-84
2023/05/19 04:52:41;;;;;;;12.63;4.43;;;;;;;8.69;88.27;102729.72;4952185;28;20128;-84
2023/05/19 04:55:07;;;;;;;7.65;5.10;;;;;;;8.64;88.70;102734.09;5001331;28;20038;-84
2023/05/19 04:57:32;;;;;;;6.15;4.65;;;;;;;8.66;89.10;102732.38;5001563;28;20275;-84
2023/05/19 04:59:58;;;;;;;9.10;4.90;;;;;;;8.69;89.01;102739.31;4983459;28;20037;-83
2023/05/19 05:02:26;;;;;;;10.82;5.30;;;;;;;8.70;89.17;102741.06;5002382;28;20034;-84
2023/05/19 05:04:53;;;;;;;10.52;5.07;;;;;;;8.72;89.09;102734.94;5011123;28;20046;-83
2023/05/19 05:07:20;;;;;;;5.32;3.97;;;;;;;8.73;89.19;102733.19;5002291;28;20046;-84
2023/05/19 05:09:47;;;;;;;8.63;5.30;;;;;;;8.78;88.79;102741.91;5001275;28;20069;-83
2023/05/19 05:12:13;;;;;;;9.43;4.90;;;;;;;8.78;89.12;102749.72;4991820;28;20105;-84
2023/05/19 05:14:39;;;;;;;11.40;5.45;;;;;;;8.74;89.65;102745.41;4953636;28;20033;-84
2023/05/19 05:17:05;;;;;;;9.88;5.10;;;;;;;8.77;89.99;102750.63;4968533;28;20049;-84
2023/05/19 05:19:31;;;;;;;9.57;4.82;;;;;;;8.74;90.66;102745.41;4964741;28;20042;-84
2023/05/19 05:21:56;;;;;;;9.70;4.95;;;;;;;8.79;90.22;102741.91;4988123;28;20038;-84
2023/05/19 05:24:22;;;;;;;14.07;5.15;;;;;;;8.80;90.10;102738.41;4981010;28;20081;-84
2023/05/19 05:26:48;;;;;;;7.38;4.55;;;;;;;8.85;90.17;102748.84;4956000;28;20043;-84
2023/05/19 05:29:13;;;;;;;16.02;5.43;;;;;;;8.92;89.71;102750.56;4964938;28;20042;-84
2023/05/19 05:31:39;;;;;;;11.40;5.05;;;;;;;8.87;90.44;102752.31;4989849;28;20102;-84
2023/05/19 05:34:04;;;;;;;9.27;5.47;;;;;;;8.87;90.57;102754.94;4949743;28;20023;-84
2023/05/19 05:36:30;;;;;;;9.48;6.30;;;;;;;8.94;90.54;102756.66;4982119;28;20061;-84
2023/05/19 05:38:56;;;;;;;9.88;5.55;;;;;;;9.02;90.50;102756.63;4964849;28;20516;-84
2023/05/19 05:41:21;;;;;;;9.23;5.28;;;;;;;9.05;90.21;102758.38;4974265;28;20042;-84
2023/05/19 05:43:47;;;;;;;9.63;5.28;;;;;;;9.12;90.10;102754.84;4967370;28;20050;-84
2023/05/19 05:46:12;;;;;;;10.02;5.53;;;;;;;9.17;89.73;102750.50;4999810;28;20046;-84
2023/05/19 05:48:38;;;;;;;10.07;5.43;;;;;;;9.22;89.54;102749.59;4966988;28;20051;-84
2023/05/19 05:51:06;;;;;;;10.73;5.78;;;;;;;9.19;89.71;102748.72;4984950;28;20041;-83
2023/05/19 05:53:35;;;;;;;8.23;5.20;;;;;;;9.21;90.55;102753.06;4984978;28;20042;-84
2023/05/19 05:56:01;;;;;;;9.60;5.65;;;;;;;9.24;90.77;102741.75;4971259;28;20026;-84
2023/05/19 05:58:27;;;;;;;10.35;5.80;;;;;;;9.33;90.27;102749.53;4968829;28;20380;-84
2023/05/19 06:00:55;;;;;;;15.00;5.93;;;;;;;9.33;89.69;102751.25;4968292;28;20042;-84
2023/05/19 06:03:23;;;;;;;12.52;6.22;;;;;;;9.34;89.54;102743.41;4965807;28;20337;-84
2023/05/19 06:05:48;;;;;;;12.90;5.97;;;;;;;9.37;89.38;102747.78;4981516;28;20065;-84
2023/05/19 06:08:14;;;;;;;8.88;5.60;;;;;;;9.36;89.95;102741.66;4991265;28;20420;-84
2023/05/19 06:10:40;;;;;;;17.15;5.85;;;;;;;9.41;89.52;102744.25;4973400;28;20085;-83
2023/05/19 06:13:06;;;;;;;7.53;5.95;;;;;;;9.47;89.39;102748.59;4982268;28;20345;-84
2023/05/19 06:15:31;;;;;;;10.35;5.50;;;;;;;9.47;89.37;102746.84;4971768;28;20334;-84
2023/05/19 06:17:56;;;;;;;16.05;6.43;;;;;;;9.51;89.59;102745.06;4997747;28;20050;-84
2023/05/19 06:20:23;;;;;;;15.00;6.13;;;;;;;9.54;90.10;102748.53;4954536;28;20365;-84
2023/05/19 06:22:48;;;;;;;6.85;5.53;;;;;;;9.60;89.55;102737.16;4998926;28;20195;-84
2023/05/19 06:25:13;;;;;;;12.95;5.88;;;;;;;9.69;88.53;102742.34;4998387;28;20065;-84
2023/05/19 06:27:39;;;;;;;6.35;5.47;;;;;;;9.75;88.14;102741.41;4980646;28;20345;-84
2023/05/19 06:30:07;;;;;;;8.70;5.35;;;;;;;9.82;87.96;102747.50;4982468;28;20034;-84
2023/05/19 06:32:32;;;;;;;14.93;6.07;;;;;;;9.88;87.62;102748.31;4981394;28;20046;-84
2023/05/19 06:34:58;;;;;;;7.35;5.72;;;;;;;9.89;88.42;102751.81;4999795;28;20038;-84
2023/05/19 06:37:23;;;;;;;8.98;6.30;;;;;;;9.92;88.63;102739.56;4998813;28;20049;-84
2023/05/19 06:39:51;;;;;;;14.30;6.28;;;;;;;9.99;88.30;102745.63;4999201;28;20065;-84
2023/05/19 06:42:21;;;;;;;11.13;5.88;;;;;;;10.09;87.88;102743.78;4999297;28;20356;-84
2023/05/19 06:44:48;;;;;;;9.18;5.72;;;;;;;10.12;86.79;102747.25;4980809;28;20038;-84
2023/05/19 06:47:14;;;;;;;9.48;6.55;;;;;;;10.12;87.05;102743.78;4963465;28;20045;-84
2023/05/19 06:49:39;;;;;;;12.85;5.72;;;;;;;10.18;87.22;102738.47;4993247;28;20359;-84
2023/05/19 06:52:05;;;;;;;18.85;6.75;;;;;;;10.25;86.98;102753.25;4988040;28;20042;-84
2023/05/19 06:54:30;;;;;;;7.28;6.03;;;;;;;10.33;86.78;102750.59;4983491;28;20054;-84
2023/05/19 06:56:55;;;;;;;9.57;5.53;;;;;;;10.38;86.00;102746.19;4961807;28;20039;-84
2023/05/19 06:59:21;;;;;;;63.15;10.00;;;;;;;10.41;86.10;102750.56;4992241;28;20046;-84
2023/05/19 07:01:47;;;;;;;23.30;6.95;;;;;;;10.45;86.12;102753.09;4974782;28;20159;-84
2023/05/19 07:04:13;;;;;;;11.95;6.20;;;;;;;10.49;85.49;102753.94;4972969;28;20348;-84
2023/05/19 07:06:38;;;;;;;9.68;5.78;;;;;;;10.51;85.31;102750.44;4945032;28;20369;-84
2023/05/19 07:09:04;;;;;;;14.57;6.93;;;;;;;10.53;85.29;102753.03;4988121;28;20042;-85
2023/05/19 07:11:29;;;;;;;21.10;6.90;;;;;;;10.54;84.69;102749.53;4996305;28;20061;-85
2023/05/19 07:13:55;;;;;;;11.57;6.60;;;;;;;10.60;84.95;102748.59;4975800;28;20349;-86
2023/05/19 07:16:20;;;;;;;14.13;5.90;;;;;;;10.60;84.30;102745.97;4984373;28;20046;-84
2023/05/19 07:18:46;;;;;;;13.18;6.20;;;;;;;10.64;84.44;102745.06;4996393;28;20511;-85
2023/05/19 07:21:11;;;;;;;10.73;5.60;;;;;;;10.71;84.27;102750.25;4998005;28;20054;-84
2023/05/19 07:23:37;;;;;;;13.27;6.85;;;;;;;10.79;84.36;102749.25;4997606;28;20085;-84
2023/05/19 07:26:02;;;;;;;12.95;5.95;;;;;;;10.84;83.98;102745.72;4999632;28;20109;-85
2023/05/19 07:28:28;;;;;;;15.73;6.72;;;;;;;10.90;84.11;102745.66;4981505;28;20042;-85
2023/05/19 07:30:53;;;;;;;12.27;7.30;;;;;;;10.94;83.66;102744.72;4998751;28;20313;-84
2023/05/19 07:33:18;;;;;;;23.17;10.10;;;;;;;11.03;83.60;102743.75;4998115;28;20041;-84
2023/05/19 07:35:45;;;;;;;10.68;6.20;;;;;;;11.08;83.21;102738.47;4997749;28;20050;-84
2023/05/19 07:38:10;;;;;;;9.32;5.53;;;;;;;11.15;83.70;102747.94;4985514;28;20058;-84
2023/05/19 07:40:36;;;;;;;9.20;5.53;;;;;;;11.23;82.77;102734.78;4979145;28;20050;-84
2023/05/19 07:43:01;;;;;;;11.57;5.57;;;;;;;11.27;81.64;102734.69;4999514;28;20046;-84
2023/05/19 07:45:27;;;;;;;9.32;5.75;;;;;;;11.37;81.31;102737.19;4979807;28;20349;-84
2023/05/19 07:47:53;;;;;;;6.53;5.13;;;;;;;11.44;80.73;102731.84;4978835;28;20218;-84
2023/05/19 07:50:18;;;;;;;8.73;4.95;;;;;;;11.54;79.58;102727.34;4993023;28;20094;-85
2023/05/19 07:52:44;;;;;;;14.45;5.32;;;;;;;11.63;79.41;102732.44;4994671;28;20306;-84
2023/05/19 07:55:10;;;;;;;25.17;5.57;;;;;;;11.72;78.94;102732.31;4968307;28;20344;-84
2023/05/19 07:57:36;;;;;;;15.27;5.65;;;;;;;11.76;77.93;102729.63;4994526;28;20116;-84
2023/05/19 08:00:06;;;;;;;24.98;5.38;;;;;;;11.86;78.27;102728.59;4999125;28;20042;-84
2023/05/19 08:02:32;;;;;;;82.45;12.85;;;;;;;11.93;77.54;102722.38;4989531;28;20030;-84
2023/05/19 08:04:57;;;;;;;30.50;7.13;;;;;;;11.99;76.51;102719.66;4988119;28;20447;-84
2023/05/19 08:07:23;;;;;;;10.65;4.43;;;;;;;12.08;75.48;102730.00;4973268;28;20041;-84
2023/05/19 08:09:48;;;;;;;10.70;5.10;;;;;;;12.18;75.54;102714.09;4980362;28;20145;-84
2023/05/19 08:12:14;;;;;;;8.77;4.15;;;;;;;12.29;75.44;102717.41;4963688;28;20249;-84
2023/05/19 08:14:39;;;;;;;11.18;4.18;;;;;;;12.33;73.22;102718.22;4984950;28;20034;-84
2023/05/19 08:17:05;;;;;;;5.13;3.50;;;;;;;12.38;73.93;102717.22;4979417;28;20052;-84
2023/05/19 08:19:30;;;;;;;10.63;5.10;;;;;;;12.48;73.82;102713.53;4980827;28;20038;-84
2023/05/19 08:21:57;;;;;;;6.97;3.55;;;;;;;12.55;72.28;102713.41;4963340;28;20047;-84
2023/05/19 08:24:22;;;;;;;14.38;4.43;;;;;;;12.62;71.90;102715.03;4978297;28;20051;-84
2023/05/19 08:26:47;;;;;;;12.05;4.20;;;;;;;12.73;71.92;102718.31;4975171;28;20106;-84
2023/05/19 08:29:13;;;;;;;8.20;3.90;;;;;;;12.81;72.34;102707.66;4978561;28;20105;-84
2023/05/19 08:31:39;;;;;;;19.73;5.05;;;;;;;12.85;72.76;102709.31;4980394;28;20045;-84
2023/05/19 08:34:05;;;;;;;12.85;4.05;;;;;;;12.95;71.14;102708.25;5005328;28;20268;-84
2023/05/19 08:36:30;;;;;;;11.00;3.67;;;;;;;12.99;70.00;102703.78;4979459;28;20106;-84
2023/05/19 08:38:55;;;;;;;15.85;4.18;;;;;;;12.97;69.72;102703.81;4978003;28;20038;-84
2023/05/19 08:41:22;;;;;;;10.80;3.70;;;;;;;12.91;68.61;102698.66;4964460;28;20038;-84
2023/05/19 08:43:48;;;;;;;7.60;3.58;;;;;;;12.91;69.86;102700.44;4977908;28;20085;-84
2023/05/19 08:46:15;;;;;;;15.30;4.32;;;;;;;12.97;70.71;102692.41;4978851;28;20045;-84
2023/05/19 08:48:43;;;;;;;13.77;3.60;;;;;;;13.07;70.70;102688.69;4975460;28;20030;-84
2023/05/19 08:51:53;;;;;;;13.80;4.38;;;;;;;13.19;70.11;102677.91;4978871;28;20198;-84
2023/05/19 08:54:24;;;;;;;16.08;3.15;;;;;;;13.29;70.24;102685.59;4949014;28;20356;-84
2023/05/19 08:56:50;;;;;;;5.82;3.47;;;;;;;13.33;69.70;102676.75;4977628;28;20367;-84
2023/05/19 08:59:16;;;;;;;8.50;3.15;;;;;;;13.34;67.47;102671.47;4977265;28;20042;-84
2023/05/19 09:01:45;;;;;;;8.60;2.90;;;;;;;13.35;66.13;102685.47;4979698;28;20058;-84
2023/05/19 09:04:11;;;;;;;6.77;3.07;;;;;;;13.42;65.84;102674.78;4980711;28;20045;-84
2023/05/19 09:06:39;;;;;;;5.18;2.90;;;;;;;13.53;66.32;102685.03;4985400;28;20297;-84
2023/05/19 09:09:05;;;;;;;7.43;2.70;;;;;;;13.57;63.88;102667.41;4999177;28;20042;-84
2023/05/19 09:11:32;;;;;;;6.35;2.55;;;;;;;13.62;63.68;102671.69;5006052;28;20034;-84
2023/05/19 09:13:58;;;;;;;4.88;2.95;;;;;;;13.67;64.23;102673.34;4966484;28;20046;-84
2023/05/19 09:16:24;;;;;;;6.75;2.50;;;;;;;13.78;61.70;102673.94;4987774;28;20050;-84
2023/05/19 09:18:56;;;;;;;7.53;2.13;;;;;;;13.90;61.51;102678.00;4998616;28;20059;-84
2023/05/19 09:21:31;;;;;;;25.48;2.55;;;;;;;14.00;63.29;102677.75;4978701;28;20042;-84
2023/05/19 09:24:03;;;;;;;13.05;3.85;;;;;;;14.05;62.97;102674.16;4996692;28;20337;-84
2023/05/19 09:26:36;;;;;;;11.80;2.55;;;;;;;14.14;61.70;102671.25;5007765;28;20143;-85
2023/05/19 09:29:09;;;;;;;9.77;2.70;;;;;;;14.18;62.36;102668.50;4995759;28;20062;-85
2023/05/19 09:31:35;;;;;;;10.52;2.95;;;;;;;14.25;62.96;102678.88;4998756;28;20360;-85
2023/05/19 09:34:00;;;;;;;14.10;3.85;;;;;;;14.24;64.12;102679.78;4998968;28;20379;-86
2023/05/19 09:36:28;;;;;;;13.63;2.72;;;;;;;14.29;61.33;102675.25;4991749;28;20041;-85
2023/05/19 09:38:53;;;;;;;5.80;2.00;;;;;;;14.35;59.06;102678.59;4993179;28;20113;-85
2023/05/19 09:41:19;;;;;;;8.77;2.00;;;;;;;14.40;58.53;102667.91;4980791;28;20117;-84
2023/05/19 09:43:53;;;;;;;14.07;2.58;;;;;;;14.51;60.03;102671.09;4968960;28;20489;-84
2023/05/19 09:46:27;;;;;;;5.78;2.00;;;;;;;14.58;60.47;102670.06;4996034;28;20039;-84
2023/05/19 09:48:56;;;;;;;6.45;2.40;;;;;;;14.70;59.74;102666.22;4984426;28;20088;-84
2023/05/19 09:51:22;;;;;;;4.82;1.90;;;;;;;14.78;58.98;102679.19;4983942;28;20218;-84
2023/05/19 09:53:48;;;;;;;6.10;2.10;;;;;;;14.80;57.26;102676.50;4992202;28;20042;-84
2023/05/19 09:56:14;;;;;;;3.90;2.08;;;;;;;14.83;57.84;102669.38;4975535;28;20396;-84
2023/05/19 09:58:41;;;;;;;6.03;2.00;;;;;;;14.92;58.45;102674.38;4999371;28;20046;-84
2023/05/19 10:01:07;;;;;;;5.20;1.80;;;;;;;14.97;57.66;102668.94;5001206;28;20035;-84
2023/05/19 10:03:33;;;;;;;7.72;2.00;;;;;;;15.09;58.22;102670.34;4958848;28;20042;-84
2023/05/19 10:06:00;;;;;;;9.15;2.33;;;;;;;15.21;59.55;102661.19;5000327;28;20074;-84
2023/05/19 10:08:29;;;;;;;7.43;2.45;;;;;;;15.33;60.74;102672.25;4992565;28;20065;-84
2023/05/19 10:10:55;;;;;;;5.75;2.28;;;;;;;15.38;56.87;102676.50;4999692;28;20296;-84
2023/05/19 10:13:23;;;;;;;9.25;2.30;;;;;;;15.35;56.23;102669.53;4980911;28;20404;-84
2023/05/19 10:15:52;;;;;;;5.13;2.35;;;;;;;15.31;56.57;102660.84;4993807;28;20113;-83
2023/05/19 10:18:18;;;;;;;4.47;2.42;;;;;;;15.30;57.69;102664.41;4962926;28;20061;-84
2023/05/19 10:20:44;;;;;;;5.28;2.45;;;;;;;15.33;57.05;102664.31;4998481;28;20337;-84
2023/05/19 10:23:10;;;;;;;3.50;2.08;;;;;;;15.43;57.04;102658.75;4966220;28;20042;-84
2023/05/19 10:25:37;;;;;;;11.73;2.58;;;;;;;15.55;58.39;102660.97;4978417;28;20282;-84
2023/05/19 10:28:12;;;;;;;7.47;2.15;;;;;;;15.47;56.06;102658.59;4992437;28;20038;-84
2023/05/19 10:30:41;;;;;;;6.03;2.33;;;;;;;15.41;57.24;102652.63;4980207;28;20034;-84
2023/05/19 10:33:12;;;;;;;3.90;2.13;;;;;;;15.37;56.99;102649.22;4985054;28;20411;-84
2023/05/19 10:36:07;;;;;;;6.38;2.30;;;;;;;15.36;56.40;102648.38;4977813;28;20037;-84
2023/05/19 10:38:43;;;;;;;4.05;2.35;;;;;;;15.48;57.69;102641.84;4975019;28;20394;-84
2023/05/19 10:41:42;;;;;;;5.28;2.50;;;;;;;15.60;55.46;102639.69;4976576;28;20030;-84
2023/05/19 10:44:33;;;;;;;5.75;2.20;;;;;;;15.65;54.41;102637.78;4994963;28;20042;-84
2023/05/19 10:46:59;;;;;;;8.07;2.58;;;;;;;15.64;54.77;102649.25;4983314;28;20046;-84
2023/05/19 10:49:24;;;;;;;12.02;1.83;;;;;;;15.63;53.77;102640.47;4961978;28;20054;-84
2023/05/19 10:51:56;;;;;;;3.97;2.30;;;;;;;15.61;55.58;102638.78;4981872;28;20367;-84
2023/05/19 10:54:42;;;;;;;4.68;2.03;;;;;;;15.68;55.40;102642.94;5002036;28;20049;-84
2023/05/19 10:57:08;;;;;;;2.75;2.00;;;;;;;15.70;54.56;102638.50;4966937;28;20461;-84
2023/05/19 10:59:36;;;;;;;5.47;2.50;;;;;;;15.71;54.54;102634.91;4949853;28;20361;-84
2023/05/19 11:02:06;;;;;;;8.57;2.20;;;;;;;15.71;54.41;102632.28;4983430;28;20090;-84
2023/05/19 11:04:52;;;;;;;5.93;1.88;;;;;;;15.69;52.26;102632.31;4983286;28;20094;-84
2023/05/19 11:07:23;;;;;;;6.93;2.15;;;;;;;15.65;52.36;102628.06;4940177;28;20272;-84
2023/05/19 11:09:50;;;;;;;5.65;2.03;;;;;;;15.64;52.94;102621.03;4977032;28;20074;-84
2023/05/19 11:12:20;;;;;;;5.00;2.25;;;;;;;15.57;51.50;102631.88;4965565;28;20062;-84
2023/05/19 11:14:46;;;;;;;4.47;2.28;;;;;;;15.51;52.55;102632.94;4971081;28;20057;-84
2023/05/19 11:17:14;;;;;;;7.38;2.33;;;;;;;15.51;52.12;102633.78;4984717;28;20300;-84
2023/05/19 11:19:51;;;;;;;6.60;2.38;;;;;;;15.49;53.79;102627.72;4978151;28;20042;-84
2023/05/19 11:22:17;;;;;;;9.10;2.85;;;;;;;15.63;54.13;102631.69;4983592;28;20039;-84
2023/05/19 11:24:51;;;;;;;6.22;2.67;;;;;;;15.72;54.51;102626.94;4970085;28;20219;-84
2023/05/19 11:27:32;;;;;;;4.25;2.72;;;;;;;15.85;53.95;102631.84;4984502;28;20262;-84
2023/05/19 11:30:00;;;;;;;6.68;2.50;;;;;;;15.89;52.22;102628.19;4995750;28;20065;-84